Weather reports worldwide

Advertisment
Soria, Spain (8148): temperature & dewpoint: 17.07.2019 10:00:00 - 23.07.2019 10:00:00 (CEST)Soria, Spain (8148): wind speed: 17.07.2019 10:00:00 - 23.07.2019 10:00:00 (CEST)Soria, Spain (8148): wind direction: 17.07.2019 10:00:00 - 23.07.2019 10:00:00 (CEST)Soria, Spain (8148): visibility: 17.07.2019 10:00:00 - 23.07.2019 10:00:00 (CEST)Soria, Spain (8148): precipitation: 17.07.2019 10:00:00 - 23.07.2019 10:00:00 (CEST)
Date & Time tt [°C] td [°C] ff [km/h] ff [kn] dd vv [km] rr [mm]
23.07.2019 10:00:00 - - - - - - -
23.07.2019 09:00:00 20,2 11,7 4 2 ESE 20 0,0
23.07.2019 08:00:00 17,1 10,9 2 1 SW 20 -
23.07.2019 07:00:00 16,4 10,3 2 1 S 20 0,0
23.07.2019 06:00:00 17,1 10,7 4 2 N 20 0,0
23.07.2019 05:00:00 18,3 10,4 2 1 NNW 20 -
23.07.2019 04:00:00 18,8 10,4 4 2 ESE 20 0,0
23.07.2019 03:00:00 19,9 11,1 2 1 NNW 20 0,0
23.07.2019 02:00:00 20,9 10,4 2 1 SE 20 -
23.07.2019 01:00:00 22,7 10,2 2 1 ESE 20 0,0
23.07.2019 00:00:00 24,6 10,1 2 1 ESE 20 0,0
22.07.2019 23:00:00 27,0 7,9 4 2 S 20 -
22.07.2019 22:00:00 28,4 7,6 8 4 SE 20 0,0
22.07.2019 21:00:00 30,4 6,3 9 5 SE 20 0,0
22.07.2019 20:00:00 31,3 7,0 8 4 ESE 20 -
22.07.2019 19:00:00 33,9 7,8 15 8 SE 20 0,0
22.07.2019 18:00:00 33,8 8,4 9 5 SSE 20 0,0
22.07.2019 17:00:00 33,3 8,7 11 6 S 20 -
22.07.2019 16:00:00 - - - - - - -
22.07.2019 15:00:00 32,2 10,3 13 7 SE 20 0,0
22.07.2019 14:00:00 31,5 9,1 11 6 S 20 -
22.07.2019 13:00:00 30,0 9,0 9 5 S 19 0,0
22.07.2019 12:00:00 28,2 10,8 8 4 S 20 0,0
22.07.2019 11:00:00 25,6 14,7 5 3 ENE 20 -
22.07.2019 10:00:00 22,9 15,2 5 3 NE 20 0,0
22.07.2019 09:00:00 19,4 15,1 5 3 ENE 20 0,0
22.07.2019 08:00:00 16,9 14,7 4 2 ESE 20 -
22.07.2019 07:00:00 17,2 14,5 4 2 NE 19 0,0
22.07.2019 06:00:00 17,9 15,3 2 1 ESE 17 0,0
22.07.2019 05:00:00 19,1 15,4 2 1 ESE 20 -
22.07.2019 04:00:00 20,0 15,2 2 1 N 20 0,0
22.07.2019 03:00:00 20,8 14,9 2 1 ENE 19 0,0
22.07.2019 02:00:00 21,6 15,0 5 3 N 20 -
22.07.2019 01:00:00 22,0 15,6 5 3 N 20 0,0
22.07.2019 00:00:00 20,5 15,5 2 1 E 19 0,0
21.07.2019 23:00:00 20,8 14,2 9 5 NNE 20 -
21.07.2019 22:00:00 19,4 15,3 8 4 NE 20 0,0
21.07.2019 21:00:00 21,0 18,0 11 6 N 15 4,0
21.07.2019 20:00:00 24,0 17,5 15 8 NE 2,9 -
21.07.2019 19:00:00 29,9 14,4 11 6 ENE 20 0,0
21.07.2019 18:00:00 33,6 12,6 5 3 E 20 0,0
21.07.2019 17:00:00 33,1 11,6 8 4 SE 19 -
21.07.2019 16:00:00 32,8 12,4 5 3 WSW 20 0,0
21.07.2019 15:00:00 31,6 12,9 8 4 SSE 20 0,0
21.07.2019 14:00:00 30,1 13,0 8 4 SSE 20 -
21.07.2019 13:00:00 28,5 12,8 8 4 SSE 20 0,0
21.07.2019 12:00:00 26,7 12,7 9 5 S 20 0,0
21.07.2019 11:00:00 24,6 15,2 8 4 SSE 20 -
21.07.2019 10:00:00 22,3 15,2 9 5 ESE 20 0,0
21.07.2019 09:00:00 19,3 15,8 4 2 NE 20 0,0
21.07.2019 08:00:00 16,8 15,0 2 1 ENE 13 -
21.07.2019 07:00:00 16,8 14,8 4 2 ENE 15 0,0
21.07.2019 06:00:00 17,5 14,9 5 3 ENE 18 0,0
21.07.2019 05:00:00 17,9 15,2 5 3 NE 20 -
21.07.2019 04:00:00 18,6 15,3 5 3 ENE 20 0,0
21.07.2019 03:00:00 19,5 15,8 8 4 NE 20 0,0
21.07.2019 02:00:00 20,0 15,8 9 5 ENE 20 -
21.07.2019 01:00:00 20,6 15,8 5 3 E 20 0,0
21.07.2019 00:00:00 22,3 16,1 4 2 ENE 20 0,0
20.07.2019 23:00:00 24,0 15,8 5 3 NE 20 -
20.07.2019 22:00:00 25,5 15,2 5 3 NE 20 0,0
20.07.2019 21:00:00 26,6 15,0 9 5 NNE 20 0,0
20.07.2019 20:00:00 27,7 14,3 15 8 NNE 20 -
20.07.2019 19:00:00 29,8 15,1 16 9 N 20 0,0
20.07.2019 18:00:00 32,4 9,8 9 5 SW 20 0,0
20.07.2019 17:00:00 32,7 10,7 8 4 SSE 20 -
20.07.2019 16:00:00 33,2 10,5 8 4 W 20 0,0
20.07.2019 15:00:00 31,9 10,6 9 5 WSW 20 0,0
20.07.2019 14:00:00 30,8 11,2 5 3 S 20 -
20.07.2019 13:00:00 29,1 13,3 8 4 SSE 20 0,0
20.07.2019 12:00:00 27,6 12,0 5 3 SSE 20 0,0
20.07.2019 11:00:00 25,8 12,6 5 3 SSE 20 -
20.07.2019 10:00:00 22,8 13,6 2 1 SE 19 0,0
20.07.2019 09:00:00 19,2 14,2 4 2 ENE 20 0,0
20.07.2019 08:00:00 16,4 13,9 2 1 N 20 -
20.07.2019 07:00:00 15,9 13,4 0 0 N 20 0,0
20.07.2019 06:00:00 16,4 13,7 4 2 E 19 0,0
20.07.2019 05:00:00 16,9 14,4 4 2 ESE 20 -
20.07.2019 04:00:00 18,0 14,3 2 1 E 20 0,0
20.07.2019 03:00:00 19,1 14,4 4 2 N 20 0,0
20.07.2019 02:00:00 19,6 15,3 5 3 E 20 -
20.07.2019 01:00:00 20,7 14,8 2 1 NE 20 0,0
20.07.2019 00:00:00 22,8 14,1 2 1 WNW 20 0,0
19.07.2019 23:00:00 24,2 11,5 8 4 E 20 -
19.07.2019 22:00:00 25,3 11,8 9 5 E 20 0,0
19.07.2019 21:00:00 25,1 12,7 5 3 SE 20 0,2
19.07.2019 20:00:00 26,7 12,0 9 5 E 20 -
19.07.2019 19:00:00 28,2 12,9 9 5 E 20 0,4
19.07.2019 18:00:00 30,8 12,2 5 3 E 20 0,0
19.07.2019 17:00:00 30,9 11,3 5 3 S 20 -
19.07.2019 16:00:00 30,9 11,3 8 4 S 18 0,0
19.07.2019 15:00:00 30,8 12,2 5 3 E 20 0,0
19.07.2019 14:00:00 29,0 12,0 8 4 SSE 20 -
19.07.2019 13:00:00 27,3 12,9 5 3 SSW 20 0,0
19.07.2019 12:00:00 25,7 12,5 8 4 S 20 0,0
19.07.2019 11:00:00 23,7 10,7 5 3 S 18 -
19.07.2019 10:00:00 20,7 9,9 4 2 E 20 0,0
19.07.2019 09:00:00 17,0 9,9 4 2 NE 20 0,0
19.07.2019 08:00:00 13,8 8,8 4 2 NNE 20 -
19.07.2019 07:00:00 12,4 9,9 2 1 E 20 0,0
19.07.2019 06:00:00 12,7 10,1 0 0 N 20 0,0
19.07.2019 05:00:00 13,8 10,0 0 0 N 20 -
19.07.2019 04:00:00 15,0 9,8 2 1 N 20 0,0
19.07.2019 03:00:00 15,5 10,5 2 1 NE 20 0,0
19.07.2019 02:00:00 16,5 10,3 5 3 NNE 20 -
19.07.2019 01:00:00 17,3 10,4 8 4 ENE 20 0,0
19.07.2019 00:00:00 18,0 10,6 8 4 ENE 20 0,0
18.07.2019 23:00:00 19,2 11,0 9 5 ENE 20 -
18.07.2019 22:00:00 21,3 8,9 9 5 ENE 20 0,0
18.07.2019 21:00:00 23,6 9,2 11 6 NE 20 0,0
18.07.2019 20:00:00 25,0 9,7 13 7 NE 20 -
18.07.2019 19:00:00 26,6 10,3 13 7 ENE 20 0,0
18.07.2019 18:00:00 27,4 10,6 15 8 ENE 20 0,0
18.07.2019 17:00:00 27,0 12,6 15 8 NE 20 -
18.07.2019 16:00:00 29,4 11,4 8 4 WNW 20 0,0
18.07.2019 15:00:00 27,5 12,7 8 4 SSW 20 0,0
18.07.2019 14:00:00 27,7 15,4 11 6 SSW 20 -
18.07.2019 13:00:00 25,7 15,4 5 3 SE 20 0,0
18.07.2019 12:00:00 23,5 15,0 5 3 SSE 20 0,0
18.07.2019 11:00:00 21,4 13,8 5 3 S 20 -
18.07.2019 10:00:00 19,1 13,3 4 2 NE 20 0,0
18.07.2019 09:00:00 16,6 12,5 5 3 NNE 20 0,0
18.07.2019 08:00:00 14,1 12,3 9 5 ENE 19 -
18.07.2019 07:00:00 13,6 12,2 9 5 NNE 14 0,0
18.07.2019 06:00:00 14,0 12,4 2 1 NE 17 0,0
18.07.2019 05:00:00 14,5 12,5 5 3 NE 17 -
18.07.2019 04:00:00 14,9 12,6 4 2 ENE 18 0,0
18.07.2019 03:00:00 15,1 12,8 5 3 E 19 0,0
18.07.2019 02:00:00 15,7 13,2 8 4 NE 19 -
18.07.2019 01:00:00 16,3 13,6 9 5 ENE 20 0,0
18.07.2019 00:00:00 16,9 14,0 8 4 ENE 20 0,0
17.07.2019 23:00:00 17,9 14,2 9 5 ENE 20 -
17.07.2019 22:00:00 19,5 14,5 13 7 ENE 20 0,0
17.07.2019 21:00:00 21,3 14,7 15 8 NE 20 0,0
17.07.2019 20:00:00 23,7 14,1 13 7 NE 20 -
17.07.2019 19:00:00 25,4 14,5 16 9 NE 20 0,0
17.07.2019 18:00:00 26,6 14,7 15 8 NE 20 0,0
17.07.2019 17:00:00 26,8 14,9 15 8 ENE 20 -
17.07.2019 16:00:00 28,5 12,4 5 3 SW 20 0,0
17.07.2019 15:00:00 27,6 13,5 9 5 SSE 20 0,0
17.07.2019 14:00:00 26,7 14,5 9 5 SE 20 -
17.07.2019 13:00:00 25,3 14,1 9 5 SSE 20 0,0
17.07.2019 12:00:00 23,7 14,4 8 4 ESE 20 0,0
17.07.2019 11:00:00 21,8 14,4 11 6 E 20 -
17.07.2019 10:00:00 19,5 14,5 5 3 E 20 0,0

tt = temperature
td = dewpoint
ff = wind speed
dd = wind direction
vv = visibility
rr = precipitation

Next stations